Terminal Aerodrome Forecast
Issued by NWS

Home | Current Version | Previous Version | Text Only | Print | Product List | Glossary On
Versions: 1 2 3 4 5 6 7 8 9 10 11 12 13 14 15 16 17 18 19 20
000
FTUS43 KDLH 141138
TAFHYR
TAF
KHYR 141138Z 1412/1512 09003KT 6SM -RA BKN050 OVC080
     FM141400 11004KT 5SM -SHRA SCT012 OVC025
     FM142100 06005KT P6SM VCSH OVC040
     FM150000 04004KT P6SM SCT050 SCT120
     FM150500 00000KT 4SM BR SCT120
     FM150800 00000KT 1SM BR BKN003=

USA.gov is the U.S. government's official web portal to all federal, state and local government web resources and services.